Time;durP1;ratioP1;P1;durP2;ratioP2;P2;SDS_P1;SDS_P2;PMS_P1;PMS_P2;Temp;Humidity;BMP_temperature;BMP_pressure;BME280_temperature;BME280_humidity;BME280_pressure;Samples;Min_cycle;Max_cycle;Signal;HPM_P1;HPM_P2
2023/01/07 00:01:39;;;;;;;17.52;13.23;;;8.20;74.80;;;;;;6080628;23;114425;-86
2023/01/07 00:04:10;;;;;;;20.58;15.27;;;8.20;74.90;;;;;;6056631;23;115468;-86
2023/01/07 00:06:39;;;;;;;19.42;15.07;;;8.20;74.80;;;;;;6055601;23;115160;-85
2023/01/07 00:09:11;;;;;;;18.55;14.65;;;8.20;74.80;;;;;;6031583;23;115205;-86
2023/01/07 00:11:40;;;;;;;22.17;15.07;;;8.20;74.80;;;;;;6018674;23;114317;-84
2023/01/07 00:14:10;;;;;;;22.52;14.85;;;8.20;74.80;;;;;;6038583;23;114854;-86
2023/01/07 00:16:37;;;;;;;20.17;14.95;;;8.20;74.80;;;;;;6031480;23;114447;-85
2023/01/07 00:19:06;;;;;;;23.02;15.05;;;8.10;74.80;;;;;;6006485;23;118235;-86
2023/01/07 00:21:33;;;;;;;19.13;13.88;;;8.20;74.90;;;;;;6033251;23;114584;-87
2023/01/07 00:24:04;;;;;;;18.38;13.27;;;8.10;74.80;;;;;;6056959;23;114669;-85
2023/01/07 00:26:36;;;;;;;15.90;11.90;;;8.10;74.90;;;;;;6081089;23;115585;-84
2023/01/07 00:29:04;;;;;;;18.33;12.80;;;8.10;74.90;;;;;;6056314;23;114631;-85
2023/01/07 00:31:34;;;;;;;20.13;12.57;;;8.20;74.90;;;;;;6056133;23;115362;-85
2023/01/07 00:36:48;;;;;;;15.88;11.93;;;8.10;74.80;;;;;;6055423;23;115174;-85
2023/01/07 00:39:18;;;;;;;16.70;12.25;;;8.20;74.70;;;;;;6079415;23;114752;-85
2023/01/07 00:44:33;;;;;;;15.45;11.95;;;8.10;74.70;;;;;;6040323;23;115213;-85
2023/01/07 00:47:00;;;;;;;16.02;11.73;;;8.10;74.80;;;;;;6055368;23;115207;-85
2023/01/07 00:49:27;;;;;;;16.92;11.77;;;8.10;74.80;;;;;;6031438;23;114812;-86
2023/01/07 00:51:55;;;;;;;16.50;11.75;;;8.10;74.80;;;;;;6080729;23;114759;-85
2023/01/07 00:54:24;;;;;;;19.63;12.70;;;8.10;74.80;;;;;;6008401;23;114528;-86
2023/01/07 00:56:51;;;;;;;18.88;12.48;;;8.10;74.70;;;;;;6054586;23;115690;-85
2023/01/07 00:59:19;;;;;;;18.65;12.20;;;8.10;74.80;;;;;;6054891;23;114989;-86
2023/01/07 01:01:46;;;;;;;16.25;11.30;;;8.20;74.60;;;;;;6056159;23;114705;-85
2023/01/07 01:04:14;;;;;;;18.50;12.30;;;8.20;74.60;;;;;;6080203;23;114534;-85
2023/01/07 01:06:41;;;;;;;15.80;11.32;;;8.20;74.60;;;;;;6030765;23;115072;-85
2023/01/07 01:09:12;;;;;;;17.35;12.30;;;8.20;74.50;;;;;;6080929;23;114682;-86
2023/01/07 01:11:40;;;;;;;14.80;11.27;;;8.20;74.50;;;;;;6056233;23;114583;-85
2023/01/07 01:14:10;;;;;;;16.75;11.95;;;8.20;74.50;;;;;;6057614;23;114691;-83
2023/01/07 01:16:39;;;;;;;17.30;12.25;;;8.20;74.40;;;;;;6079374;23;115587;-84
2023/01/07 01:19:06;;;;;;;15.90;12.13;;;8.20;74.40;;;;;;6079366;23;114669;-83
2023/01/07 01:21:34;;;;;;;16.60;12.25;;;8.20;74.40;;;;;;6081370;23;114698;-82
2023/01/07 01:24:01;;;;;;;16.70;12.55;;;8.10;74.40;;;;;;6031875;23;114316;-84
2023/01/07 01:26:28;;;;;;;16.58;12.82;;;8.10;74.50;;;;;;6079320;23;115449;-83
2023/01/07 01:28:56;;;;;;;15.77;12.32;;;8.10;74.50;;;;;;6079002;23;115017;-83
2023/01/07 01:31:24;;;;;;;14.55;11.05;;;8.00;74.50;;;;;;6056144;23;114424;-84
2023/01/07 01:33:56;;;;;;;15.95;11.35;;;8.00;74.70;;;;;;6032703;23;114388;-84
2023/01/07 01:36:23;;;;;;;15.35;11.55;;;7.90;74.90;;;;;;6055520;23;115876;-83
2023/01/07 01:38:53;;;;;;;17.20;12.35;;;7.80;75.00;;;;;;6032284;23;115402;-84
2023/01/07 01:41:20;;;;;;;18.05;11.80;;;7.80;75.10;;;;;;6032361;23;114813;-84
2023/01/07 01:43:50;;;;;;;18.05;13.23;;;7.80;75.10;;;;;;6009972;23;114657;-84
2023/01/07 01:46:42;;;;;;;20.33;13.18;;;7.80;75.20;;;;;;6054471;23;115286;-85
2023/01/07 01:49:22;;;;;;;16.00;12.32;;;7.90;75.20;;;;;;6033534;23;114646;-84
2023/01/07 01:52:03;;;;;;;17.75;12.32;;;7.90;75.30;;;;;;6080191;23;114576;-85
2023/01/07 01:54:31;;;;;;;16.00;12.23;;;7.90;75.30;;;;;;6035323;23;114455;-84
2023/01/07 01:57:01;;;;;;;15.40;11.90;;;7.90;75.20;;;;;;6035479;23;115154;-85
2023/01/07 01:59:30;;;;;;;17.40;11.93;;;8.00;75.10;;;;;;6063165;23;114504;-84
2023/01/07 02:02:01;;;;;;;15.85;12.55;;;8.00;75.10;;;;;;6012178;23;114421;-85
2023/01/07 02:04:29;;;;;;;17.42;12.05;;;8.00;75.00;;;;;;6033808;23;114396;-85
2023/01/07 02:07:07;;;;;;;16.27;11.57;;;8.10;75.10;;;;;;6055908;23;115659;-85
2023/01/07 02:09:37;;;;;;;14.60;11.90;;;8.10;75.00;;;;;;6034603;23;115209;-85
2023/01/07 02:12:45;;;;;;;15.25;11.85;;;8.10;75.00;;;;;;6056247;23;114817;-85
2023/01/07 02:15:46;;;;;;;14.77;11.98;;;8.10;75.10;;;;;;6048295;23;114513;-85
2023/01/07 02:18:31;;;;;;;18.42;13.18;;;8.10;75.10;;;;;;6080377;23;115162;-85
2023/01/07 02:21:30;;;;;;;14.73;11.45;;;8.10;75.10;;;;;;6079496;23;116896;-85
2023/01/07 02:23:59;;;;;;;14.00;11.15;;;8.10;75.10;;;;;;6082311;23;114570;-85
2023/01/07 02:26:42;;;;;;;15.05;11.48;;;8.00;75.10;;;;;;6080570;23;114822;-85
2023/01/07 02:29:30;;;;;;;15.38;12.15;;;8.00;75.20;;;;;;6079351;23;115051;-86
2023/01/07 02:32:32;;;;;;;15.07;11.57;;;8.00;75.20;;;;;;6055699;23;115238;-86
2023/01/07 02:35:20;;;;;;;15.13;11.55;;;8.00;75.20;;;;;;6082009;23;114468;-84
2023/01/07 02:38:29;;;;;;;15.68;11.02;;;8.00;75.10;;;;;;6080621;23;114594;-83
2023/01/07 02:41:35;;;;;;;15.70;11.60;;;8.00;75.10;;;;;;6035114;23;114932;-84
2023/01/07 02:44:26;;;;;;;15.55;11.70;;;8.00;74.90;;;;;;5972020;23;114475;-84
2023/01/07 02:47:10;;;;;;;15.85;12.45;;;7.90;75.30;;;;;;6001164;23;114988;-84
2023/01/07 02:49:37;;;;;;;16.30;11.73;;;7.90;75.40;;;;;;6065918;23;114647;-84
2023/01/07 02:52:24;;;;;;;19.85;12.23;;;7.90;75.30;;;;;;6055480;23;115790;-83
2023/01/07 02:55:07;;;;;;;16.45;11.27;;;8.00;75.40;;;;;;6079669;23;114817;-84
2023/01/07 02:58:02;;;;;;;13.98;10.95;;;7.90;75.50;;;;;;6032323;23;114395;-85
2023/01/07 03:01:04;;;;;;;13.57;10.20;;;7.90;75.40;;;;;;6032401;23;114837;-84
2023/01/07 03:03:56;;;;;;;16.25;11.85;;;8.00;75.30;;;;;;6033397;23;115121;-84
2023/01/07 03:07:00;;;;;;;15.20;11.40;;;7.90;75.40;;;;;;6079050;23;114684;-85
2023/01/07 03:10:03;;;;;;;14.27;11.05;;;8.00;75.40;;;;;;6059448;23;114627;-85
2023/01/07 03:12:30;;;;;;;16.00;10.45;;;7.90;75.50;;;;;;6018580;23;114367;-84
2023/01/07 03:15:27;;;;;;;13.30;11.13;;;8.00;75.40;;;;;;6078795;23;115102;-84
2023/01/07 03:18:12;;;;;;;12.95;10.70;;;8.00;75.10;;;;;;6056979;23;115949;-84
2023/01/07 03:20:40;;;;;;;13.57;10.53;;;8.00;75.40;;;;;;6055447;23;114702;-84
2023/01/07 03:23:11;;;;;;;14.35;10.70;;;8.00;75.20;;;;;;6008118;23;114425;-85
2023/01/07 03:25:42;;;;;;;12.73;10.40;;;8.00;75.30;;;;;;6055353;23;115157;-84
2023/01/07 03:28:11;;;;;;;13.48;11.40;;;8.00;75.10;;;;;;6008560;23;115310;-85
2023/01/07 03:30:39;;;;;;;13.35;11.05;;;8.10;75.20;;;;;;5961952;23;114449;-84
2023/01/07 03:33:08;;;;;;;13.73;11.15;;;8.00;75.10;;;;;;6081671;23;114436;-84
2023/01/07 03:35:36;;;;;;;14.60;11.45;;;8.00;75.00;;;;;;6056051;23;114639;-85
2023/01/07 03:38:03;;;;;;;13.73;10.90;;;8.00;74.90;;;;;;6032284;23;114897;-85
2023/01/07 03:40:31;;;;;;;12.85;10.45;;;8.00;74.80;;;;;;6009230;23;114958;-86
2023/01/07 03:42:58;;;;;;;13.60;11.30;;;8.00;74.80;;;;;;6059563;23;114459;-85
2023/01/07 03:45:26;;;;;;;14.52;10.93;;;8.00;74.80;;;;;;6089354;23;114272;-84
2023/01/07 03:47:57;;;;;;;14.98;10.88;;;7.90;74.70;;;;;;6034943;23;115022;-86
2023/01/07 03:50:30;;;;;;;14.75;10.38;;;7.90;74.80;;;;;;6081436;23;114531;-85
2023/01/07 03:52:57;;;;;;;14.30;10.95;;;7.90;74.80;;;;;;6057266;23;114689;-82
2023/01/07 03:55:25;;;;;;;14.05;10.63;;;7.90;74.80;;;;;;6056641;23;115128;-82
2023/01/07 03:57:55;;;;;;;13.07;11.00;;;7.80;74.80;;;;;;6056654;23;114770;-84
2023/01/07 04:00:24;;;;;;;13.50;10.65;;;7.90;74.80;;;;;;6080837;23;114836;-83
2023/01/07 04:02:58;;;;;;;13.38;10.38;;;7.80;74.70;;;;;;6035158;23;114725;-83
2023/01/07 04:05:29;;;;;;;13.00;10.00;;;7.80;74.70;;;;;;6056695;23;115180;-83
2023/01/07 04:07:57;;;;;;;14.05;10.77;;;7.80;74.80;;;;;;6080372;23;115103;-83
2023/01/07 04:10:30;;;;;;;15.07;10.95;;;7.80;74.80;;;;;;6058114;23;114254;-82
2023/01/07 04:12:57;;;;;;;11.95;10.65;;;7.70;74.70;;;;;;6082822;23;114494;-82
2023/01/07 04:15:24;;;;;;;13.75;10.38;;;7.70;74.60;;;;;;6079675;23;115007;-83
2023/01/07 04:17:51;;;;;;;14.05;11.98;;;7.70;74.60;;;;;;6056364;23;114577;-84
2023/01/07 04:20:19;;;;;;;13.10;11.05;;;7.70;74.60;;;;;;6081224;23;114539;-84
2023/01/07 04:22:46;;;;;;;12.68;11.07;;;7.70;74.60;;;;;;6009123;23;114478;-85
2023/01/07 04:25:13;;;;;;;12.63;9.98;;;7.70;74.50;;;;;;6079758;23;116449;-83
2023/01/07 04:27:41;;;;;;;14.52;10.82;;;7.70;74.50;;;;;;6055537;23;115144;-84
2023/01/07 04:30:09;;;;;;;12.85;10.65;;;7.70;74.60;;;;;;6082176;23;114375;-84
2023/01/07 04:32:37;;;;;;;14.88;12.73;;;7.70;74.50;;;;;;6057049;23;114662;-83
2023/01/07 04:35:04;;;;;;;16.33;12.65;;;7.60;74.50;;;;;;6081427;23;115353;-84
2023/01/07 04:37:32;;;;;;;17.60;13.52;;;7.60;74.60;;;;;;6055889;23;114818;-83
2023/01/07 04:40:00;;;;;;;16.15;12.05;;;7.50;74.60;;;;;;6056310;23;114657;-83
2023/01/07 04:42:32;;;;;;;15.15;12.10;;;7.50;74.70;;;;;;6058450;23;114462;-83
2023/01/07 04:44:59;;;;;;;14.65;11.38;;;7.50;74.80;;;;;;6055908;23;115177;-83
2023/01/07 04:47:27;;;;;;;15.32;11.27;;;7.40;74.80;;;;;;6079876;23;114483;-82
2023/01/07 04:49:54;;;;;;;14.10;11.25;;;7.30;74.80;;;;;;6056287;23;114658;-83
2023/01/07 04:52:22;;;;;;;16.55;13.55;;;7.30;74.80;;;;;;6056700;23;114741;-83
2023/01/07 04:54:49;;;;;;;14.20;11.63;;;7.30;74.80;;;;;;6079213;23;115025;-83
2023/01/07 04:57:17;;;;;;;15.57;11.95;;;7.20;74.80;;;;;;6055366;23;115472;-83
2023/01/07 04:59:47;;;;;;;15.35;12.50;;;7.40;74.80;;;;;;6056556;23;114731;-83
2023/01/07 05:02:15;;;;;;;14.68;12.15;;;7.30;74.80;;;;;;6056298;23;114700;-82
2023/01/07 05:04:44;;;;;;;13.60;11.68;;;7.30;74.70;;;;;;6079898;23;115386;-83
2023/01/07 05:07:12;;;;;;;14.65;12.68;;;7.20;74.70;;;;;;6055863;23;114700;-84
2023/01/07 05:09:40;;;;;;;14.43;11.48;;;7.20;74.60;;;;;;6009144;23;114506;-83
2023/01/07 05:12:07;;;;;;;18.83;13.45;;;7.20;74.60;;;;;;6032853;23;114541;-85
2023/01/07 05:14:34;;;;;;;14.52;11.95;;;7.20;74.60;;;;;;6079263;23;115716;-84
2023/01/07 05:17:02;;;;;;;15.02;12.57;;;7.20;74.60;;;;;;6055811;23;114518;-84
2023/01/07 05:19:31;;;;;;;14.73;12.05;;;7.10;74.60;;;;;;6081194;23;114587;-84
2023/01/07 05:21:58;;;;;;;18.63;13.95;;;7.10;74.50;;;;;;6055798;23;114696;-84
2023/01/07 05:24:27;;;;;;;17.75;14.13;;;7.10;74.50;;;;;;6079620;23;114955;-83
2023/01/07 05:26:55;;;;;;;17.80;12.90;;;7.10;74.40;;;;;;6030965;23;114597;-85
2023/01/07 05:29:22;;;;;;;17.77;13.60;;;7.00;74.20;;;;;;6059822;23;115234;-85
2023/01/07 05:31:49;;;;;;;16.38;12.68;;;6.90;74.30;;;;;;6064988;23;114438;-84
2023/01/07 05:34:17;;;;;;;15.43;12.40;;;6.90;74.30;;;;;;6084758;23;115325;-82
2023/01/07 05:36:45;;;;;;;14.18;11.68;;;6.80;74.40;;;;;;6080229;23;114607;-83
2023/01/07 05:39:13;;;;;;;16.45;12.38;;;6.80;74.50;;;;;;6080433;23;114295;-84
2023/01/07 05:41:41;;;;;;;18.15;13.85;;;6.80;74.60;;;;;;6081294;23;114378;-84
2023/01/07 05:44:08;;;;;;;15.00;11.88;;;6.80;74.70;;;;;;6080169;23;115041;-85
2023/01/07 05:46:35;;;;;;;16.70;13.27;;;6.80;74.60;;;;;;6055414;23;114659;-85
2023/01/07 05:49:03;;;;;;;16.27;13.05;;;6.80;74.60;;;;;;6032823;23;114390;-84
2023/01/07 05:51:30;;;;;;;16.27;12.27;;;6.80;74.60;;;;;;6056246;23;114680;-84
2023/01/07 05:53:57;;;;;;;15.40;12.02;;;6.80;74.60;;;;;;6079314;23;116417;-85
2023/01/07 05:56:24;;;;;;;15.50;12.32;;;6.80;74.70;;;;;;6081475;23;114635;-82
2023/01/07 05:58:52;;;;;;;16.77;13.05;;;6.90;74.80;;;;;;6081789;23;115045;-83
2023/01/07 06:01:22;;;;;;;15.77;13.02;;;6.80;74.70;;;;;;6082009;23;114371;-82
2023/01/07 06:03:49;;;;;;;15.60;11.95;;;6.90;74.70;;;;;;6080441;23;115574;-84
2023/01/07 06:06:16;;;;;;;18.35;13.40;;;6.90;74.70;;;;;;6079514;23;114528;-84
2023/01/07 06:08:43;;;;;;;16.33;12.23;;;6.90;74.50;;;;;;6082222;23;114406;-83
2023/01/07 06:11:11;;;;;;;22.08;14.93;;;6.90;74.50;;;;;;6081674;23;114305;-85
2023/01/07 06:13:38;;;;;;;21.58;15.63;;;6.90;74.30;;;;;;6080504;23;114921;-84
2023/01/07 06:16:07;;;;;;;20.35;16.38;;;6.90;74.10;;;;;;6078754;23;119129;-83
2023/01/07 06:18:38;;;;;;;20.95;15.43;;;6.80;74.00;;;;;;6056738;23;114397;-84
2023/01/07 06:21:08;;;;;;;19.83;15.60;;;6.70;74.00;;;;;;6082692;23;114601;-84
2023/01/07 06:23:36;;;;;;;21.15;16.42;;;6.70;74.10;;;;;;6079390;23;115428;-85
2023/01/07 06:26:03;;;;;;;17.20;13.98;;;6.70;74.30;;;;;;6055173;23;115103;-84
2023/01/07 06:28:30;;;;;;;15.32;12.55;;;6.60;74.40;;;;;;6055146;23;114592;-84
2023/01/07 06:30:58;;;;;;;20.25;15.48;;;6.60;74.40;;;;;;6080529;23;114735;-84
2023/01/07 06:33:25;;;;;;;18.80;13.95;;;6.60;74.40;;;;;;6079113;23;115912;-83
2023/01/07 06:35:52;;;;;;;16.70;12.68;;;6.60;74.40;;;;;;6079534;23;114945;-85
2023/01/07 06:38:20;;;;;;;21.50;14.77;;;6.60;74.30;;;;;;6081629;23;114987;-84
2023/01/07 06:40:47;;;;;;;22.27;14.85;;;6.50;74.30;;;;;;6080226;23;114337;-84
2023/01/07 06:43:14;;;;;;;22.27;13.98;;;6.40;74.30;;;;;;6079216;23;114903;-84
2023/01/07 06:45:41;;;;;;;17.30;12.45;;;6.40;74.30;;;;;;6079714;23;114466;-84
2023/01/07 06:48:09;;;;;;;17.05;12.02;;;6.50;74.50;;;;;;6055651;23;114343;-84
2023/01/07 06:50:36;;;;;;;18.35;13.55;;;6.30;74.60;;;;;;6080370;23;114505;-84
2023/01/07 06:53:03;;;;;;;19.27;13.55;;;6.30;74.50;;;;;;6080160;23;115380;-84
2023/01/07 06:55:33;;;;;;;20.02;14.45;;;6.40;74.60;;;;;;6079324;23;114677;-85
2023/01/07 06:58:01;;;;;;;17.45;12.38;;;6.40;74.50;;;;;;6080514;23;114424;-83
2023/01/07 07:00:29;;;;;;;18.02;12.98;;;6.40;74.60;;;;;;6056075;23;114387;-85
2023/01/07 07:02:56;;;;;;;20.35;13.68;;;6.40;74.50;;;;;;6055774;23;115129;-84
2023/01/07 07:05:24;;;;;;;22.42;15.38;;;6.30;74.50;;;;;;6082203;23;114674;-84
2023/01/07 07:07:51;;;;;;;18.35;12.30;;;6.40;74.40;;;;;;6081747;23;114461;-84
2023/01/07 07:10:18;;;;;;;22.40;13.13;;;6.40;74.40;;;;;;6050387;23;115392;-84
2023/01/07 07:12:45;;;;;;;18.45;12.90;;;6.30;74.40;;;;;;6053865;23;115593;-85
2023/01/07 07:15:13;;;;;;;16.67;11.35;;;6.40;74.40;;;;;;6082047;23;114762;-85
2023/01/07 07:17:40;;;;;;;16.33;10.90;;;6.40;74.40;;;;;;6065312;23;114391;-85
2023/01/07 07:20:08;;;;;;;16.48;10.40;;;6.40;74.40;;;;;;6068409;23;114731;-84
2023/01/07 07:22:35;;;;;;;14.05;9.10;;;6.40;74.40;;;;;;6056094;23;115125;-85
2023/01/07 07:25:03;;;;;;;13.32;8.25;;;6.50;74.30;;;;;;6031704;23;117898;-86
2023/01/07 07:27:30;;;;;;;13.02;8.88;;;6.60;74.30;;;;;;6032223;23;115930;-86
2023/01/07 07:30:01;;;;;;;13.48;8.98;;;6.60;74.20;;;;;;6082632;23;114882;-84
2023/01/07 07:32:28;;;;;;;17.60;10.77;;;6.70;74.20;;;;;;6056075;23;115178;-84
2023/01/07 07:34:56;;;;;;;14.75;10.52;;;6.70;74.20;;;;;;6055836;23;114558;-84
2023/01/07 07:37:23;;;;;;;14.95;9.88;;;6.80;74.10;;;;;;6031691;23;114536;-84
2023/01/07 07:39:50;;;;;;;12.90;9.63;;;6.90;74.00;;;;;;6081739;23;114274;-84
2023/01/07 07:42:18;;;;;;;15.27;10.18;;;7.00;73.80;;;;;;6054332;23;117852;-85
2023/01/07 07:44:45;;;;;;;17.48;9.93;;;7.00;73.70;;;;;;6055393;23;114974;-85
2023/01/07 07:47:15;;;;;;;13.43;8.93;;;7.10;73.60;;;;;;6082143;23;114616;-86
2023/01/07 07:49:42;;;;;;;23.83;11.07;;;7.10;73.40;;;;;;6056199;23;114969;-85
2023/01/07 07:52:10;;;;;;;17.20;8.82;;;7.10;73.40;;;;;;6079961;23;115032;-85
2023/01/07 07:54:37;;;;;;;12.05;8.32;;;7.10;73.30;;;;;;6080171;23;114874;-84
2023/01/07 07:57:04;;;;;;;12.70;7.65;;;7.10;73.30;;;;;;6081995;23;115288;-86
2023/01/07 07:59:32;;;;;;;12.30;8.18;;;7.20;73.50;;;;;;6080228;23;114473;-86
2023/01/07 08:01:59;;;;;;;10.45;8.07;;;7.10;73.50;;;;;;6079446;23;115017;-86
2023/01/07 08:04:32;;;;;;;12.35;7.82;;;7.10;73.90;;;;;;6055417;23;114729;-85
2023/01/07 08:07:00;;;;;;;13.90;8.90;;;7.20;74.40;;;;;;6079205;23;115418;-86
2023/01/07 08:09:27;;;;;;;12.88;9.32;;;7.20;73.80;;;;;;6078831;23;114589;-85
2023/01/07 08:11:55;;;;;;;15.18;12.07;;;7.20;73.50;;;;;;6054940;23;114977;-86
2023/01/07 08:14:22;;;;;;;23.55;11.32;;;7.30;73.30;;;;;;6078026;23;115105;-86
2023/01/07 08:16:49;;;;;;;18.25;10.95;;;7.20;73.20;;;;;;6055746;23;114643;-85
2023/01/07 08:19:16;;;;;;;16.73;11.13;;;7.20;73.00;;;;;;6081514;23;115207;-86
2023/01/07 08:21:48;;;;;;;17.70;11.05;;;7.20;72.90;;;;;;6080707;23;115085;-85
2023/01/07 08:24:15;;;;;;;15.88;10.93;;;7.20;72.90;;;;;;6079068;23;115842;-84
2023/01/07 08:26:42;;;;;;;16.17;11.15;;;7.20;73.00;;;;;;6080793;23;114443;-85
2023/01/07 08:29:09;;;;;;;19.08;13.00;;;7.20;73.00;;;;;;6032199;23;114689;-86
2023/01/07 08:31:36;;;;;;;17.10;12.90;;;7.30;73.00;;;;;;6080037;23;115658;-85
2023/01/07 08:34:04;;;;;;;18.67;12.13;;;7.20;72.80;;;;;;6079027;23;115036;-85
2023/01/07 08:36:31;;;;;;;17.20;12.90;;;7.20;72.90;;;;;;6055117;23;115450;-85
2023/01/07 08:38:58;;;;;;;21.30;14.75;;;7.20;72.90;;;;;;6055940;23;114756;-86
2023/01/07 08:41:26;;;;;;;21.90;13.98;;;7.20;72.90;;;;;;6053557;23;115066;-85
2023/01/07 08:43:53;;;;;;;22.25;15.93;;;7.20;73.00;;;;;;6079525;23;114773;-85
2023/01/07 08:46:20;;;;;;;18.48;13.63;;;7.30;72.90;;;;;;6055996;23;114946;-86
2023/01/07 08:48:47;;;;;;;24.15;14.85;;;7.30;72.80;;;;;;6079550;23;116064;-85
2023/01/07 08:51:15;;;;;;;20.67;13.63;;;7.30;72.80;;;;;;6078767;23;118411;-85
2023/01/07 08:53:42;;;;;;;20.05;13.05;;;7.40;72.70;;;;;;6078327;23;114865;-86
2023/01/07 08:56:09;;;;;;;18.40;12.40;;;7.50;72.60;;;;;;6055470;23;114668;-85
2023/01/07 08:58:37;;;;;;;19.10;13.02;;;7.70;72.60;;;;;;6056439;23;114433;-84
2023/01/07 09:01:07;;;;;;;18.92;12.32;;;7.80;72.40;;;;;;6057061;23;118073;-84
2023/01/07 09:03:34;;;;;;;22.52;12.73;;;7.90;72.10;;;;;;6092610;23;114491;-85
2023/01/07 09:06:01;;;;;;;17.60;12.57;;;8.10;72.00;;;;;;6093921;23;114149;-82
2023/01/07 09:08:29;;;;;;;17.92;12.40;;;8.20;71.80;;;;;;6088743;23;114682;-82
2023/01/07 09:10:56;;;;;;;16.58;10.25;;;8.20;71.60;;;;;;6084165;23;115048;-84
2023/01/07 09:13:23;;;;;;;21.48;13.00;;;8.30;71.30;;;;;;6081415;23;114778;-83
2023/01/07 09:15:51;;;;;;;18.33;10.65;;;8.40;71.10;;;;;;6081818;23;114413;-83
2023/01/07 09:18:19;;;;;;;16.75;10.43;;;8.50;70.60;;;;;;6057655;23;114720;-82
2023/01/07 09:20:46;;;;;;;12.10;8.32;;;8.50;70.20;;;;;;6080780;23;115075;-82
2023/01/07 09:23:14;;;;;;;14.00;9.43;;;8.50;69.70;;;;;;6031382;23;114636;-82
2023/01/07 09:25:41;;;;;;;15.18;9.00;;;8.50;69.80;;;;;;6032390;23;114657;-83
2023/01/07 09:28:08;;;;;;;12.30;8.65;;;8.50;69.90;;;;;;6056188;23;114592;-83
2023/01/07 09:30:36;;;;;;;13.32;9.63;;;8.50;69.30;;;;;;6055026;23;118738;-83
2023/01/07 09:33:03;;;;;;;12.43;8.15;;;8.40;69.40;;;;;;6081399;23;114501;-85
2023/01/07 09:35:45;;;;;;;12.10;8.48;;;8.40;69.10;;;;;;6079402;23;114537;-84
2023/01/07 09:38:12;;;;;;;10.38;8.13;;;8.40;69.50;;;;;;6080224;23;114823;-83
2023/01/07 09:40:40;;;;;;;12.32;9.02;;;8.30;69.50;;;;;;6078856;23;114980;-83
2023/01/07 09:43:39;;;;;;;12.82;8.55;;;8.30;69.60;;;;;;6054944;23;114584;-82
2023/01/07 09:46:28;;;;;;;15.00;8.63;;;8.40;69.20;;;;;;6079849;23;115379;-81
2023/01/07 09:48:59;;;;;;;11.93;8.63;;;8.30;69.60;;;;;;5984648;23;114594;-84
2023/01/07 09:51:36;;;;;;;12.43;8.43;;;8.40;69.60;;;;;;6031127;23;119088;-83
2023/01/07 09:54:04;;;;;;;11.80;8.00;;;8.50;69.20;;;;;;6055211;23;115185;-83
2023/01/07 09:56:33;;;;;;;11.52;8.15;;;8.50;69.20;;;;;;6033871;23;114595;-84
2023/01/07 09:59:01;;;;;;;11.00;7.88;;;8.50;68.60;;;;;;6055781;23;114993;-82
2023/01/07 10:01:41;;;;;;;11.13;8.32;;;8.50;68.70;;;;;;6054832;23;116223;-82
2023/01/07 10:04:25;;;;;;;13.30;9.40;;;8.50;68.90;;;;;;6079196;23;114798;-83
2023/01/07 10:07:06;;;;;;;11.02;8.98;;;8.50;68.40;;;;;;6079999;23;114412;-83
2023/01/07 10:09:52;;;;;;;12.88;9.15;;;8.50;68.80;;;;;;6033702;23;114517;-82
2023/01/07 10:12:37;;;;;;;12.80;8.63;;;8.50;68.40;;;;;;6078256;23;115150;-81
2023/01/07 10:15:24;;;;;;;14.90;9.05;;;8.40;68.40;;;;;;6077774;23;114529;-82
2023/01/07 10:18:17;;;;;;;12.68;9.25;;;8.40;68.60;;;;;;6057449;23;114601;-82
2023/01/07 10:21:22;;;;;;;15.05;9.27;;;8.40;68.80;;;;;;6059808;23;114334;-82
2023/01/07 10:23:56;;;;;;;14.80;10.40;;;8.50;68.80;;;;;;6036039;23;115195;-81
2023/01/07 10:26:33;;;;;;;;;;;8.40;68.80;;;;;;6032534;23;115022;-81
2023/01/07 10:29:24;;;;;;;14.30;9.13;;;8.40;69.00;;;;;;6030753;23;114556;-82
2023/01/07 10:31:52;;;;;;;12.43;8.55;;;8.40;68.70;;;;;;6060648;23;114510;-82
2023/01/07 10:34:24;;;;;;;15.30;9.23;;;8.40;68.50;;;;;;6029913;23;115380;-82
2023/01/07 10:37:26;;;;;;;12.43;8.88;;;8.30;68.40;;;;;;6077809;23;114702;-82
2023/01/07 10:40:14;;;;;;;13.18;9.43;;;8.40;68.30;;;;;;6047308;23;114915;-83
2023/01/07 10:43:31;;;;;;;12.13;8.93;;;8.20;68.60;;;;;;6047720;23;116021;-81
2023/01/07 10:46:24;;;;;;;14.32;10.15;;;8.30;68.30;;;;;;6046660;23;115075;-82
2023/01/07 10:49:27;;;;;;;12.63;9.10;;;8.30;68.60;;;;;;6047464;23;114545;-82
2023/01/07 10:52:16;;;;;;;18.00;12.77;;;8.30;68.90;;;;;;6048081;23;114845;-81
2023/01/07 10:54:53;;;;;;;13.40;9.52;;;8.40;68.70;;;;;;6024341;23;114440;-82
2023/01/07 10:57:26;;;;;;;11.65;8.73;;;8.60;68.30;;;;;;6023888;23;115357;-83
2023/01/07 11:00:01;;;;;;;12.15;8.73;;;8.60;68.00;;;;;;6024639;23;114718;-83
2023/01/07 11:02:29;;;;;;;12.88;8.27;;;8.70;67.80;;;;;;6054261;23;114377;-83
2023/01/07 11:04:57;;;;;;;10.07;6.97;;;8.80;67.80;;;;;;6050353;23;114380;-83
2023/01/07 11:07:29;;;;;;;8.07;6.30;;;9.00;67.30;;;;;;6031776;23;114639;-83
2023/01/07 11:09:58;;;;;;;8.55;6.32;;;9.00;66.90;;;;;;6055288;23;114645;-82
2023/01/07 11:12:35;;;;;;;10.98;6.45;;;9.00;66.30;;;;;;6057811;23;114819;-83
2023/01/07 11:15:23;;;;;;;11.07;7.32;;;9.10;66.00;;;;;;6056812;23;114799;-82
2023/01/07 11:18:00;;;;;;;9.63;6.65;;;9.00;66.20;;;;;;6079172;23;115619;-82
2023/01/07 11:20:57;;;;;;;9.65;7.25;;;9.00;66.00;;;;;;6032397;23;114426;-83
2023/01/07 11:23:28;;;;;;;10.32;8.18;;;9.10;65.90;;;;;;6079046;23;114499;-84
2023/01/07 11:26:07;;;;;;;11.35;7.78;;;8.90;66.50;;;;;;6075924;22;117217;-82
2023/01/07 11:28:35;;;;;;;12.25;8.25;;;9.00;66.70;;;;;;6048022;23;115033;-83
2023/01/07 11:31:02;;;;;;;10.65;8.55;;;8.90;66.80;;;;;;6047271;23;114618;-84
2023/01/07 11:33:39;;;;;;;12.77;9.65;;;8.90;66.50;;;;;;6048156;23;114936;-83
2023/01/07 11:36:42;;;;;;;12.05;8.60;;;8.90;66.70;;;;;;6029722;23;114602;-82
2023/01/07 11:39:17;;;;;;;11.45;8.30;;;8.80;66.50;;;;;;6046756;23;115192;-84
2023/01/07 11:41:57;;;;;;;12.65;8.82;;;8.70;66.50;;;;;;6047150;23;114790;-83
2023/01/07 11:44:25;;;;;;;13.18;10.00;;;8.70;66.50;;;;;;6024808;23;114484;-83
2023/01/07 11:46:53;;;;;;;14.00;9.85;;;8.50;66.70;;;;;;6050668;23;114744;-83
2023/01/07 11:49:26;;;;;;;13.88;9.68;;;8.60;67.00;;;;;;6049824;23;115585;-83
2023/01/07 11:51:54;;;;;;;13.10;9.80;;;8.60;66.90;;;;;;6024284;23;114655;-82
2023/01/07 11:54:27;;;;;;;14.25;9.80;;;8.50;66.70;;;;;;6050485;23;114472;-82
2023/01/07 11:57:24;;;;;;;14.45;9.98;;;8.50;66.80;;;;;;6072808;23;114779;-84
2023/01/07 12:00:12;;;;;;;16.88;10.80;;;8.50;66.70;;;;;;6047348;23;115070;-82
2023/01/07 12:02:43;;;;;;;15.50;10.52;;;8.50;67.10;;;;;;6046665;23;114619;-84
2023/01/07 12:05:23;;;;;;;12.23;9.20;;;8.60;66.80;;;;;;6049479;23;114720;-83
2023/01/07 12:07:50;;;;;;;14.02;8.82;;;8.60;66.60;;;;;;6049770;23;114711;-83
2023/01/07 12:10:36;;;;;;;9.80;8.13;;;8.60;66.60;;;;;;6072361;23;116269;-84
2023/01/07 12:13:06;;;;;;;9.68;7.05;;;8.70;66.00;;;;;;6047092;23;114741;-84
2023/01/07 12:15:38;;;;;;;7.95;6.13;;;8.70;65.60;;;;;;6049216;23;114750;-83
2023/01/07 12:18:06;;;;;;;7.70;6.47;;;8.80;65.00;;;;;;6025809;23;114715;-84
2023/01/07 12:20:55;;;;;;;8.77;6.32;;;8.80;64.80;;;;;;6050590;23;116153;-83
2023/01/07 12:23:40;;;;;;;6.70;5.20;;;8.90;64.20;;;;;;6072614;23;115241;-82
2023/01/07 12:26:15;;;;;;;7.85;5.60;;;8.80;63.80;;;;;;6050246;23;115409;-83
2023/01/07 12:29:35;;;;;;;8.30;5.97;;;8.80;64.10;;;;;;6002560;23;114588;-85
2023/01/07 12:32:33;;;;;;;8.05;5.60;;;8.80;64.20;;;;;;5966817;23;115243;-83
2023/01/07 12:35:02;;;;;;;6.88;5.40;;;8.90;63.80;;;;;;6027368;23;115550;-82
2023/01/07 12:37:47;;;;;;;10.38;7.35;;;8.90;64.00;;;;;;6028474;23;115084;-85
2023/01/07 12:40:16;;;;;;;9.45;7.22;;;8.90;63.60;;;;;;6049690;23;116664;-83
2023/01/07 12:42:53;;;;;;;11.70;7.65;;;8.90;63.70;;;;;;6026168;23;115475;-85
2023/01/07 12:45:32;;;;;;;10.52;7.90;;;8.80;63.90;;;;;;6026195;23;114926;-83
2023/01/07 12:48:03;;;;;;;19.25;9.15;;;8.80;63.90;;;;;;6027427;23;114821;-85
2023/01/07 12:50:37;;;;;;;9.68;6.45;;;8.80;64.10;;;;;;6049093;23;114895;-85
2023/01/07 12:53:33;;;;;;;9.60;6.55;;;8.90;63.90;;;;;;6048251;23;116197;-83
2023/01/07 12:56:06;;;;;;;9.70;7.05;;;8.90;64.00;;;;;;6046981;23;115218;-83
2023/01/07 12:58:49;;;;;;;10.90;7.07;;;8.80;64.10;;;;;;6049951;23;114784;-84
2023/01/07 13:01:24;;;;;;;9.30;5.90;;;8.80;64.20;;;;;;6033426;23;114579;-83
2023/01/07 13:04:03;;;;;;;7.72;6.10;;;8.90;63.90;;;;;;6088132;23;115419;-83
2023/01/07 13:06:50;;;;;;;10.70;6.10;;;8.80;64.00;;;;;;6060373;23;115138;-83